sensor_id;sensor_type;location;lat;lon;timestamp;P1;durP1;ratioP1;P2;durP2;ratioP2
11471;SDS011;47430;50.808;4.388;2023-01-09T00:01:18;4.77;;;1.43;;
11471;SDS011;47430;50.808;4.388;2023-01-09T00:03:44;2.03;;;1.60;;
11471;SDS011;47430;50.808;4.388;2023-01-09T00:06:10;2.43;;;1.50;;
11471;SDS011;47430;50.808;4.388;2023-01-09T00:08:36;5.40;;;1.87;;
11471;SDS011;47430;50.808;4.388;2023-01-09T00:11:02;1.77;;;1.67;;
11471;SDS011;47430;50.808;4.388;2023-01-09T00:13:28;3.43;;;1.53;;
11471;SDS011;47430;50.808;4.388;2023-01-09T00:15:54;3.73;;;1.70;;
11471;SDS011;47430;50.808;4.388;2023-01-09T00:18:20;2.90;;;1.43;;
11471;SDS011;47430;50.808;4.388;2023-01-09T00:20:46;2.30;;;2.10;;
11471;SDS011;47430;50.808;4.388;2023-01-09T00:23:12;4.40;;;1.60;;
11471;SDS011;47430;50.808;4.388;2023-01-09T00:25:38;2.17;;;1.60;;
11471;SDS011;47430;50.808;4.388;2023-01-09T00:28:05;1.70;;;1.60;;
11471;SDS011;47430;50.808;4.388;2023-01-09T00:30:31;2.27;;;1.60;;
11471;SDS011;47430;50.808;4.388;2023-01-09T00:32:57;6.33;;;1.57;;
11471;SDS011;47430;50.808;4.388;2023-01-09T00:35:23;3.97;;;1.90;;
11471;SDS011;47430;50.808;4.388;2023-01-09T00:37:50;1.90;;;1.60;;
11471;SDS011;47430;50.808;4.388;2023-01-09T00:40:16;3.47;;;1.73;;
11471;SDS011;47430;50.808;4.388;2023-01-09T00:42:43;4.40;;;1.80;;
11471;SDS011;47430;50.808;4.388;2023-01-09T00:45:13;7.10;;;1.77;;
11471;SDS011;47430;50.808;4.388;2023-01-09T00:47:41;2.27;;;1.70;;
11471;SDS011;47430;50.808;4.388;2023-01-09T00:50:15;2.13;;;1.73;;
11471;SDS011;47430;50.808;4.388;2023-01-09T00:52:43;3.00;;;1.80;;
11471;SDS011;47430;50.808;4.388;2023-01-09T00:55:10;2.20;;;1.63;;
11471;SDS011;47430;50.808;4.388;2023-01-09T00:57:37;5.00;;;1.97;;
11471;SDS011;47430;50.808;4.388;2023-01-09T01:00:03;3.90;;;1.70;;
11471;SDS011;47430;50.808;4.388;2023-01-09T01:02:30;5.50;;;1.93;;
11471;SDS011;47430;50.808;4.388;2023-01-09T01:04:56;4.10;;;1.73;;
11471;SDS011;47430;50.808;4.388;2023-01-09T01:07:40;3.77;;;1.70;;
11471;SDS011;47430;50.808;4.388;2023-01-09T01:10:17;1.90;;;1.77;;
11471;SDS011;47430;50.808;4.388;2023-01-09T01:12:44;2.37;;;1.50;;
11471;SDS011;47430;50.808;4.388;2023-01-09T01:15:10;6.57;;;1.90;;
11471;SDS011;47430;50.808;4.388;2023-01-09T01:17:38;7.30;;;1.90;;
11471;SDS011;47430;50.808;4.388;2023-01-09T01:20:04;5.40;;;1.50;;
11471;SDS011;47430;50.808;4.388;2023-01-09T01:22:31;5.93;;;2.00;;
11471;SDS011;47430;50.808;4.388;2023-01-09T01:24:57;6.07;;;1.80;;
11471;SDS011;47430;50.808;4.388;2023-01-09T01:27:23;6.67;;;1.93;;
11471;SDS011;47430;50.808;4.388;2023-01-09T01:29:49;2.53;;;1.63;;
11471;SDS011;47430;50.808;4.388;2023-01-09T01:32:15;5.30;;;2.17;;
11471;SDS011;47430;50.808;4.388;2023-01-09T01:34:41;7.57;;;2.10;;
11471;SDS011;47430;50.808;4.388;2023-01-09T01:37:07;5.37;;;1.63;;
11471;SDS011;47430;50.808;4.388;2023-01-09T01:39:33;5.10;;;1.83;;
11471;SDS011;47430;50.808;4.388;2023-01-09T01:41:59;2.20;;;1.57;;
11471;SDS011;47430;50.808;4.388;2023-01-09T01:47:12;4.60;;;1.77;;
11471;SDS011;47430;50.808;4.388;2023-01-09T01:49:39;3.93;;;1.60;;
11471;SDS011;47430;50.808;4.388;2023-01-09T01:52:05;2.67;;;1.37;;
11471;SDS011;47430;50.808;4.388;2023-01-09T01:54:31;3.23;;;1.53;;
11471;SDS011;47430;50.808;4.388;2023-01-09T01:56:59;7.27;;;2.40;;
11471;SDS011;47430;50.808;4.388;2023-01-09T01:59:28;3.07;;;1.43;;
11471;SDS011;47430;50.808;4.388;2023-01-09T02:01:57;5.60;;;1.80;;
11471;SDS011;47430;50.808;4.388;2023-01-09T02:04:23;5.87;;;1.93;;
11471;SDS011;47430;50.808;4.388;2023-01-09T02:06:51;4.43;;;1.50;;
11471;SDS011;47430;50.808;4.388;2023-01-09T02:09:17;3.00;;;1.43;;
11471;SDS011;47430;50.808;4.388;2023-01-09T02:11:47;4.13;;;1.70;;
11471;SDS011;47430;50.808;4.388;2023-01-09T02:14:16;2.73;;;1.70;;
11471;SDS011;47430;50.808;4.388;2023-01-09T02:25:02;1.87;;;1.37;;
11471;SDS011;47430;50.808;4.388;2023-01-09T02:30:06;2.23;;;1.63;;
11471;SDS011;47430;50.808;4.388;2023-01-09T02:42:37;3.67;;;1.53;;
11471;SDS011;47430;50.808;4.388;2023-01-09T02:45:05;3.27;;;1.90;;
11471;SDS011;47430;50.808;4.388;2023-01-09T02:47:35;2.53;;;1.60;;
11471;SDS011;47430;50.808;4.388;2023-01-09T02:50:03;4.67;;;1.80;;
11471;SDS011;47430;50.808;4.388;2023-01-09T03:00:32;5.17;;;2.00;;
11471;SDS011;47430;50.808;4.388;2023-01-09T03:03:04;5.70;;;2.10;;
11471;SDS011;47430;50.808;4.388;2023-01-09T03:05:42;5.63;;;1.80;;
11471;SDS011;47430;50.808;4.388;2023-01-09T03:08:12;4.87;;;1.80;;
11471;SDS011;47430;50.808;4.388;2023-01-09T03:10:44;7.67;;;1.93;;
11471;SDS011;47430;50.808;4.388;2023-01-09T03:13:12;10.57;;;2.23;;
11471;SDS011;47430;50.808;4.388;2023-01-09T03:15:39;4.27;;;2.10;;
11471;SDS011;47430;50.808;4.388;2023-01-09T03:18:07;7.23;;;3.10;;
11471;SDS011;47430;50.808;4.388;2023-01-09T03:20:35;5.20;;;1.70;;
11471;SDS011;47430;50.808;4.388;2023-01-09T03:23:02;2.47;;;1.60;;
11471;SDS011;47430;50.808;4.388;2023-01-09T03:25:29;4.10;;;2.33;;
11471;SDS011;47430;50.808;4.388;2023-01-09T03:27:59;4.90;;;1.87;;
11471;SDS011;47430;50.808;4.388;2023-01-09T03:30:26;5.33;;;2.67;;
11471;SDS011;47430;50.808;4.388;2023-01-09T03:32:53;7.17;;;1.90;;
11471;SDS011;47430;50.808;4.388;2023-01-09T03:35:19;3.67;;;1.73;;
11471;SDS011;47430;50.808;4.388;2023-01-09T03:37:45;4.27;;;1.57;;
11471;SDS011;47430;50.808;4.388;2023-01-09T03:40:11;1.97;;;1.53;;
11471;SDS011;47430;50.808;4.388;2023-01-09T03:42:37;8.50;;;1.80;;
11471;SDS011;47430;50.808;4.388;2023-01-09T03:45:03;7.33;;;2.30;;
11471;SDS011;47430;50.808;4.388;2023-01-09T03:47:29;6.07;;;2.00;;
11471;SDS011;47430;50.808;4.388;2023-01-09T03:49:55;3.80;;;1.47;;
11471;SDS011;47430;50.808;4.388;2023-01-09T03:52:22;7.00;;;2.00;;
11471;SDS011;47430;50.808;4.388;2023-01-09T03:54:48;3.80;;;1.73;;
11471;SDS011;47430;50.808;4.388;2023-01-09T03:57:14;8.03;;;1.87;;
11471;SDS011;47430;50.808;4.388;2023-01-09T03:59:40;6.83;;;1.70;;
11471;SDS011;47430;50.808;4.388;2023-01-09T04:02:06;9.37;;;2.10;;
11471;SDS011;47430;50.808;4.388;2023-01-09T04:04:32;3.73;;;2.00;;
11471;SDS011;47430;50.808;4.388;2023-01-09T04:06:58;8.57;;;2.33;;
11471;SDS011;47430;50.808;4.388;2023-01-09T04:09:24;7.40;;;1.67;;
11471;SDS011;47430;50.808;4.388;2023-01-09T04:11:50;4.70;;;1.97;;
11471;SDS011;47430;50.808;4.388;2023-01-09T04:14:16;4.20;;;1.60;;
11471;SDS011;47430;50.808;4.388;2023-01-09T04:16:42;7.03;;;2.30;;
11471;SDS011;47430;50.808;4.388;2023-01-09T04:19:08;5.70;;;2.13;;
11471;SDS011;47430;50.808;4.388;2023-01-09T04:21:34;10.67;;;2.40;;
11471;SDS011;47430;50.808;4.388;2023-01-09T04:24:00;6.13;;;2.13;;
11471;SDS011;47430;50.808;4.388;2023-01-09T04:26:27;5.43;;;1.73;;
11471;SDS011;47430;50.808;4.388;2023-01-09T04:28:53;6.50;;;2.50;;
11471;SDS011;47430;50.808;4.388;2023-01-09T04:31:19;7.50;;;2.07;;
11471;SDS011;47430;50.808;4.388;2023-01-09T04:33:45;4.00;;;1.70;;
11471;SDS011;47430;50.808;4.388;2023-01-09T04:36:11;9.73;;;2.07;;
11471;SDS011;47430;50.808;4.388;2023-01-09T04:38:37;5.63;;;1.83;;
11471;SDS011;47430;50.808;4.388;2023-01-09T04:41:03;6.37;;;2.07;;
11471;SDS011;47430;50.808;4.388;2023-01-09T04:43:29;6.40;;;2.23;;
11471;SDS011;47430;50.808;4.388;2023-01-09T04:45:55;9.40;;;2.13;;
11471;SDS011;47430;50.808;4.388;2023-01-09T04:48:21;15.33;;;2.57;;
11471;SDS011;47430;50.808;4.388;2023-01-09T04:50:47;6.43;;;1.83;;
11471;SDS011;47430;50.808;4.388;2023-01-09T04:53:13;3.50;;;1.50;;
11471;SDS011;47430;50.808;4.388;2023-01-09T04:55:39;3.20;;;1.70;;
11471;SDS011;47430;50.808;4.388;2023-01-09T04:58:05;5.33;;;1.93;;
11471;SDS011;47430;50.808;4.388;2023-01-09T05:00:31;10.20;;;2.37;;
11471;SDS011;47430;50.808;4.388;2023-01-09T05:02:57;4.97;;;1.90;;
11471;SDS011;47430;50.808;4.388;2023-01-09T05:05:23;3.17;;;1.73;;
11471;SDS011;47430;50.808;4.388;2023-01-09T05:07:49;6.23;;;2.07;;
11471;SDS011;47430;50.808;4.388;2023-01-09T05:10:15;2.93;;;1.77;;
11471;SDS011;47430;50.808;4.388;2023-01-09T05:12:41;8.57;;;2.30;;
11471;SDS011;47430;50.808;4.388;2023-01-09T05:15:08;3.13;;;1.70;;
11471;SDS011;47430;50.808;4.388;2023-01-09T05:17:34;2.77;;;2.00;;
11471;SDS011;47430;50.808;4.388;2023-01-09T05:20:00;7.77;;;1.87;;
11471;SDS011;47430;50.808;4.388;2023-01-09T05:22:26;5.37;;;2.13;;
11471;SDS011;47430;50.808;4.388;2023-01-09T05:24:52;6.87;;;2.07;;
11471;SDS011;47430;50.808;4.388;2023-01-09T05:27:18;5.50;;;2.50;;
11471;SDS011;47430;50.808;4.388;2023-01-09T05:29:44;7.20;;;2.00;;
11471;SDS011;47430;50.808;4.388;2023-01-09T05:32:10;5.37;;;2.23;;
11471;SDS011;47430;50.808;4.388;2023-01-09T05:34:36;6.87;;;2.23;;
11471;SDS011;47430;50.808;4.388;2023-01-09T05:37:02;7.27;;;1.93;;
11471;SDS011;47430;50.808;4.388;2023-01-09T05:39:28;3.40;;;2.03;;
11471;SDS011;47430;50.808;4.388;2023-01-09T05:41:54;4.13;;;1.93;;
11471;SDS011;47430;50.808;4.388;2023-01-09T05:44:20;4.93;;;1.87;;
11471;SDS011;47430;50.808;4.388;2023-01-09T05:46:46;4.37;;;1.80;;
11471;SDS011;47430;50.808;4.388;2023-01-09T05:49:12;6.90;;;2.13;;
11471;SDS011;47430;50.808;4.388;2023-01-09T05:51:38;5.77;;;2.30;;
11471;SDS011;47430;50.808;4.388;2023-01-09T05:54:04;6.77;;;2.30;;
11471;SDS011;47430;50.808;4.388;2023-01-09T05:56:31;4.47;;;2.00;;
11471;SDS011;47430;50.808;4.388;2023-01-09T05:58:57;6.90;;;1.90;;
11471;SDS011;47430;50.808;4.388;2023-01-09T06:01:23;10.63;;;2.57;;
11471;SDS011;47430;50.808;4.388;2023-01-09T06:03:49;4.53;;;1.60;;
11471;SDS011;47430;50.808;4.388;2023-01-09T06:06:15;11.27;;;2.00;;
11471;SDS011;47430;50.808;4.388;2023-01-09T06:08:41;5.73;;;1.87;;
11471;SDS011;47430;50.808;4.388;2023-01-09T06:11:07;3.73;;;1.67;;
11471;SDS011;47430;50.808;4.388;2023-01-09T06:13:33;7.13;;;1.83;;
11471;SDS011;47430;50.808;4.388;2023-01-09T06:15:59;6.33;;;1.60;;
11471;SDS011;47430;50.808;4.388;2023-01-09T06:18:25;9.63;;;1.97;;
11471;SDS011;47430;50.808;4.388;2023-01-09T06:20:51;5.73;;;1.87;;
11471;SDS011;47430;50.808;4.388;2023-01-09T06:23:18;4.10;;;1.70;;
11471;SDS011;47430;50.808;4.388;2023-01-09T06:25:44;3.13;;;1.50;;
11471;SDS011;47430;50.808;4.388;2023-01-09T06:28:10;4.50;;;1.50;;
11471;SDS011;47430;50.808;4.388;2023-01-09T06:30:36;3.70;;;1.50;;
11471;SDS011;47430;50.808;4.388;2023-01-09T06:33:03;7.87;;;1.77;;
11471;SDS011;47430;50.808;4.388;2023-01-09T06:35:29;9.20;;;1.90;;
11471;SDS011;47430;50.808;4.388;2023-01-09T06:37:55;5.30;;;1.50;;
11471;SDS011;47430;50.808;4.388;2023-01-09T06:40:23;7.57;;;1.67;;
11471;SDS011;47430;50.808;4.388;2023-01-09T06:42:49;3.20;;;1.73;;
11471;SDS011;47430;50.808;4.388;2023-01-09T06:45:16;7.10;;;1.67;;
11471;SDS011;47430;50.808;4.388;2023-01-09T06:47:42;9.00;;;1.83;;
11471;SDS011;47430;50.808;4.388;2023-01-09T06:50:08;6.53;;;2.27;;
11471;SDS011;47430;50.808;4.388;2023-01-09T06:52:35;2.37;;;1.33;;
11471;SDS011;47430;50.808;4.388;2023-01-09T06:55:01;5.23;;;1.97;;
11471;SDS011;47430;50.808;4.388;2023-01-09T06:57:27;5.63;;;1.80;;
11471;SDS011;47430;50.808;4.388;2023-01-09T06:59:53;4.53;;;1.67;;
11471;SDS011;47430;50.808;4.388;2023-01-09T07:02:20;7.70;;;1.67;;
11471;SDS011;47430;50.808;4.388;2023-01-09T07:04:46;4.37;;;1.60;;
11471;SDS011;47430;50.808;4.388;2023-01-09T07:07:12;5.53;;;1.80;;
11471;SDS011;47430;50.808;4.388;2023-01-09T07:09:39;5.23;;;1.60;;
11471;SDS011;47430;50.808;4.388;2023-01-09T07:12:05;8.23;;;1.70;;
11471;SDS011;47430;50.808;4.388;2023-01-09T07:14:31;10.33;;;2.00;;
11471;SDS011;47430;50.808;4.388;2023-01-09T07:16:59;3.87;;;1.40;;
11471;SDS011;47430;50.808;4.388;2023-01-09T07:19:25;3.20;;;1.73;;
11471;SDS011;47430;50.808;4.388;2023-01-09T07:21:51;6.00;;;1.70;;
11471;SDS011;47430;50.808;4.388;2023-01-09T07:24:17;5.67;;;1.57;;
11471;SDS011;47430;50.808;4.388;2023-01-09T07:26:43;7.43;;;1.77;;
11471;SDS011;47430;50.808;4.388;2023-01-09T07:29:09;2.57;;;1.47;;
11471;SDS011;47430;50.808;4.388;2023-01-09T07:31:35;10.20;;;2.03;;
11471;SDS011;47430;50.808;4.388;2023-01-09T07:34:01;5.67;;;2.00;;
11471;SDS011;47430;50.808;4.388;2023-01-09T07:36:27;4.60;;;2.30;;
11471;SDS011;47430;50.808;4.388;2023-01-09T07:38:53;6.27;;;1.93;;
11471;SDS011;47430;50.808;4.388;2023-01-09T07:41:19;8.47;;;2.13;;
11471;SDS011;47430;50.808;4.388;2023-01-09T07:43:45;7.47;;;1.70;;
11471;SDS011;47430;50.808;4.388;2023-01-09T07:46:11;6.47;;;1.83;;
11471;SDS011;47430;50.808;4.388;2023-01-09T07:48:37;7.30;;;2.40;;
11471;SDS011;47430;50.808;4.388;2023-01-09T07:51:03;8.23;;;2.27;;
11471;SDS011;47430;50.808;4.388;2023-01-09T07:53:30;10.90;;;2.33;;
11471;SDS011;47430;50.808;4.388;2023-01-09T07:55:56;6.77;;;2.30;;
11471;SDS011;47430;50.808;4.388;2023-01-09T07:58:22;5.93;;;1.73;;
11471;SDS011;47430;50.808;4.388;2023-01-09T08:00:49;3.57;;;1.83;;
11471;SDS011;47430;50.808;4.388;2023-01-09T08:03:15;4.93;;;2.27;;
11471;SDS011;47430;50.808;4.388;2023-01-09T08:05:41;6.33;;;2.20;;
11471;SDS011;47430;50.808;4.388;2023-01-09T08:08:07;4.57;;;1.70;;
11471;SDS011;47430;50.808;4.388;2023-01-09T08:10:33;5.70;;;2.00;;
11471;SDS011;47430;50.808;4.388;2023-01-09T08:12:59;6.63;;;2.03;;
11471;SDS011;47430;50.808;4.388;2023-01-09T08:15:25;7.23;;;2.20;;
11471;SDS011;47430;50.808;4.388;2023-01-09T08:17:51;7.23;;;2.17;;
11471;SDS011;47430;50.808;4.388;2023-01-09T08:20:17;6.87;;;2.20;;
11471;SDS011;47430;50.808;4.388;2023-01-09T08:22:44;4.20;;;1.87;;
11471;SDS011;47430;50.808;4.388;2023-01-09T08:25:14;8.00;;;1.90;;
11471;SDS011;47430;50.808;4.388;2023-01-09T08:27:40;8.13;;;1.83;;
11471;SDS011;47430;50.808;4.388;2023-01-09T08:30:07;3.30;;;2.37;;
11471;SDS011;47430;50.808;4.388;2023-01-09T08:32:34;6.47;;;2.07;;
11471;SDS011;47430;50.808;4.388;2023-01-09T08:35:00;2.40;;;1.20;;
11471;SDS011;47430;50.808;4.388;2023-01-09T08:37:26;1.93;;;1.53;;
11471;SDS011;47430;50.808;4.388;2023-01-09T08:39:52;4.73;;;1.60;;
11471;SDS011;47430;50.808;4.388;2023-01-09T08:42:18;4.20;;;1.50;;
11471;SDS011;47430;50.808;4.388;2023-01-09T08:45:03;4.20;;;1.70;;
11471;SDS011;47430;50.808;4.388;2023-01-09T08:47:48;4.90;;;1.60;;
11471;SDS011;47430;50.808;4.388;2023-01-09T08:50:14;5.13;;;1.40;;
11471;SDS011;47430;50.808;4.388;2023-01-09T08:52:41;2.90;;;1.30;;
11471;SDS011;47430;50.808;4.388;2023-01-09T08:55:08;4.43;;;1.43;;
11471;SDS011;47430;50.808;4.388;2023-01-09T08:57:34;5.00;;;1.30;;
11471;SDS011;47430;50.808;4.388;2023-01-09T09:00:00;1.40;;;1.10;;
11471;SDS011;47430;50.808;4.388;2023-01-09T09:02:26;4.47;;;1.47;;
11471;SDS011;47430;50.808;4.388;2023-01-09T09:04:52;3.13;;;1.10;;
11471;SDS011;47430;50.808;4.388;2023-01-09T09:07:20;1.60;;;1.47;;
11471;SDS011;47430;50.808;4.388;2023-01-09T09:09:51;3.33;;;1.20;;
11471;SDS011;47430;50.808;4.388;2023-01-09T09:12:17;1.67;;;1.33;;
11471;SDS011;47430;50.808;4.388;2023-01-09T09:14:43;1.83;;;1.40;;
11471;SDS011;47430;50.808;4.388;2023-01-09T09:17:28;1.63;;;1.23;;
11471;SDS011;47430;50.808;4.388;2023-01-09T09:19:56;3.43;;;1.20;;
11471;SDS011;47430;50.808;4.388;2023-01-09T09:22:23;1.77;;;1.33;;
11471;SDS011;47430;50.808;4.388;2023-01-09T09:24:49;2.33;;;1.33;;
11471;SDS011;47430;50.808;4.388;2023-01-09T09:27:15;6.13;;;1.57;;
11471;SDS011;47430;50.808;4.388;2023-01-09T09:29:41;1.40;;;1.30;;
11471;SDS011;47430;50.808;4.388;2023-01-09T09:32:07;2.57;;;1.30;;
11471;SDS011;47430;50.808;4.388;2023-01-09T09:34:33;1.00;;;1.00;;
11471;SDS011;47430;50.808;4.388;2023-01-09T09:36:59;3.30;;;1.60;;
11471;SDS011;47430;50.808;4.388;2023-01-09T09:39:25;2.50;;;1.20;;
11471;SDS011;47430;50.808;4.388;2023-01-09T09:55:18;1.37;;;1.23;;
11471;SDS011;47430;50.808;4.388;2023-01-09T09:57:46;1.33;;;1.23;;
11471;SDS011;47430;50.808;4.388;2023-01-09T10:00:14;2.80;;;1.37;;
11471;SDS011;47430;50.808;4.388;2023-01-09T10:02:48;1.33;;;1.23;;
11471;SDS011;47430;50.808;4.388;2023-01-09T10:07:44;1.67;;;1.30;;
11471;SDS011;47430;50.808;4.388;2023-01-09T10:10:14;1.53;;;1.30;;
11471;SDS011;47430;50.808;4.388;2023-01-09T10:12:44;2.23;;;1.40;;
11471;SDS011;47430;50.808;4.388;2023-01-09T10:15:25;3.87;;;1.30;;
11471;SDS011;47430;50.808;4.388;2023-01-09T10:26:00;2.27;;;1.67;;
11471;SDS011;47430;50.808;4.388;2023-01-09T10:33:42;2.07;;;1.50;;
11471;SDS011;47430;50.808;4.388;2023-01-09T10:38:55;5.07;;;2.20;;
11471;SDS011;47430;50.808;4.388;2023-01-09T10:41:26;4.33;;;1.93;;
11471;SDS011;47430;50.808;4.388;2023-01-09T10:43:55;5.87;;;1.47;;
11471;SDS011;47430;50.808;4.388;2023-01-09T10:46:24;2.57;;;1.50;;
11471;SDS011;47430;50.808;4.388;2023-01-09T10:48:58;1.83;;;1.53;;
11471;SDS011;47430;50.808;4.388;2023-01-09T10:51:34;2.70;;;1.43;;
11471;SDS011;47430;50.808;4.388;2023-01-09T10:54:02;3.37;;;1.40;;
11471;SDS011;47430;50.808;4.388;2023-01-09T10:56:33;5.07;;;1.67;;
11471;SDS011;47430;50.808;4.388;2023-01-09T10:58:59;2.80;;;1.50;;
11471;SDS011;47430;50.808;4.388;2023-01-09T11:01:27;2.60;;;1.70;;
11471;SDS011;47430;50.808;4.388;2023-01-09T11:03:53;2.97;;;1.80;;
11471;SDS011;47430;50.808;4.388;2023-01-09T11:06:44;2.93;;;1.50;;
11471;SDS011;47430;50.808;4.388;2023-01-09T11:09:09;3.23;;;1.70;;
11471;SDS011;47430;50.808;4.388;2023-01-09T11:11:36;3.07;;;1.67;;
11471;SDS011;47430;50.808;4.388;2023-01-09T11:14:04;3.23;;;1.60;;
11471;SDS011;47430;50.808;4.388;2023-01-09T11:16:30;2.80;;;1.60;;
11471;SDS011;47430;50.808;4.388;2023-01-09T11:18:58;3.77;;;1.67;;
11471;SDS011;47430;50.808;4.388;2023-01-09T11:21:27;1.60;;;1.50;;
11471;SDS011;47430;50.808;4.388;2023-01-09T11:23:54;3.77;;;1.70;;
11471;SDS011;47430;50.808;4.388;2023-01-09T11:26:24;5.90;;;1.83;;
11471;SDS011;47430;50.808;4.388;2023-01-09T11:29:24;1.70;;;1.50;;
11471;SDS011;47430;50.808;4.388;2023-01-09T11:31:51;3.27;;;1.37;;
11471;SDS011;47430;50.808;4.388;2023-01-09T11:34:19;1.50;;;1.40;;
11471;SDS011;47430;50.808;4.388;2023-01-09T11:36:46;3.13;;;1.90;;
11471;SDS011;47430;50.808;4.388;2023-01-09T11:39:25;5.43;;;1.67;;
11471;SDS011;47430;50.808;4.388;2023-01-09T11:42:02;2.47;;;1.40;;
11471;SDS011;47430;50.808;4.388;2023-01-09T11:44:29;2.27;;;1.67;;
11471;SDS011;47430;50.808;4.388;2023-01-09T11:46:55;4.63;;;1.77;;
11471;SDS011;47430;50.808;4.388;2023-01-09T11:54:33;4.23;;;2.00;;
11471;SDS011;47430;50.808;4.388;2023-01-09T11:57:00;4.33;;;1.70;;
11471;SDS011;47430;50.808;4.388;2023-01-09T11:59:27;5.03;;;1.67;;
11471;SDS011;47430;50.808;4.388;2023-01-09T12:04:23;3.57;;;1.97;;
11471;SDS011;47430;50.808;4.388;2023-01-09T12:10:01;2.67;;;1.50;;
11471;SDS011;47430;50.808;4.388;2023-01-09T12:12:29;3.90;;;1.50;;
11471;SDS011;47430;50.808;4.388;2023-01-09T12:25:32;7.80;;;1.90;;
11471;SDS011;47430;50.808;4.388;2023-01-09T12:33:21;1.50;;;1.40;;
11471;SDS011;47430;50.808;4.388;2023-01-09T12:43:43;2.23;;;2.03;;
11471;SDS011;47430;50.808;4.388;2023-01-09T12:46:16;3.50;;;2.13;;
11471;SDS011;47430;50.808;4.388;2023-01-09T12:51:33;4.80;;;2.20;;
11471;SDS011;47430;50.808;4.388;2023-01-09T13:02:03;6.30;;;2.13;;
11471;SDS011;47430;50.808;4.388;2023-01-09T13:04:32;8.37;;;2.50;;
11471;SDS011;47430;50.808;4.388;2023-01-09T13:07:03;12.53;;;2.50;;
11471;SDS011;47430;50.808;4.388;2023-01-09T13:09:42;7.33;;;2.00;;
11471;SDS011;47430;50.808;4.388;2023-01-09T13:12:13;6.63;;;3.10;;
11471;SDS011;47430;50.808;4.388;2023-01-09T13:14:45;12.33;;;2.87;;
11471;SDS011;47430;50.808;4.388;2023-01-09T13:17:14;10.00;;;2.83;;
11471;SDS011;47430;50.808;4.388;2023-01-09T13:19:41;5.50;;;2.50;;
11471;SDS011;47430;50.808;4.388;2023-01-09T13:22:09;8.43;;;2.67;;
11471;SDS011;47430;50.808;4.388;2023-01-09T13:27:21;7.47;;;2.90;;
11471;SDS011;47430;50.808;4.388;2023-01-09T13:29:49;5.87;;;3.00;;
11471;SDS011;47430;50.808;4.388;2023-01-09T13:34:46;8.17;;;2.20;;
11471;SDS011;47430;50.808;4.388;2023-01-09T13:39:53;6.93;;;2.47;;
11471;SDS011;47430;50.808;4.388;2023-01-09T13:42:21;5.38;;;2.50;;
11471;SDS011;47430;50.808;4.388;2023-01-09T13:45:10;9.45;;;2.40;;
11471;SDS011;47430;50.808;4.388;2023-01-09T13:47:36;8.32;;;2.70;;
11471;SDS011;47430;50.808;4.388;2023-01-09T13:52:46;6.55;;;2.55;;
11471;SDS011;47430;50.808;4.388;2023-01-09T13:58:21;9.02;;;2.60;;
11471;SDS011;47430;50.808;4.388;2023-01-09T14:03:02;13.80;;;2.30;;
11471;SDS011;47430;50.808;4.388;2023-01-09T14:08:05;8.43;;;2.97;;
11471;SDS011;47430;50.808;4.388;2023-01-09T14:10:37;10.67;;;2.70;;
11471;SDS011;47430;50.808;4.388;2023-01-09T14:13:07;10.67;;;3.37;;
11471;SDS011;47430;50.808;4.388;2023-01-09T14:15:41;7.43;;;2.63;;
11471;SDS011;47430;50.808;4.388;2023-01-09T14:18:14;5.33;;;3.00;;
11471;SDS011;47430;50.808;4.388;2023-01-09T14:20:45;9.33;;;2.30;;
11471;SDS011;47430;50.808;4.388;2023-01-09T14:23:23;4.50;;;2.00;;
11471;SDS011;47430;50.808;4.388;2023-01-09T14:25:50;9.20;;;5.00;;
11471;SDS011;47430;50.808;4.388;2023-01-09T14:28:21;5.23;;;2.23;;
11471;SDS011;47430;50.808;4.388;2023-01-09T14:38:52;8.70;;;2.83;;
11471;SDS011;47430;50.808;4.388;2023-01-09T14:41:22;6.90;;;2.30;;
11471;SDS011;47430;50.808;4.388;2023-01-09T14:44:19;12.67;;;2.40;;
11471;SDS011;47430;50.808;4.388;2023-01-09T14:46:48;9.20;;;2.90;;
11471;SDS011;47430;50.808;4.388;2023-01-09T14:49:23;6.67;;;1.90;;
11471;SDS011;47430;50.808;4.388;2023-01-09T14:51:52;11.43;;;2.70;;
11471;SDS011;47430;50.808;4.388;2023-01-09T14:54:27;10.57;;;3.00;;
11471;SDS011;47430;50.808;4.388;2023-01-09T14:56:54;7.23;;;2.63;;
11471;SDS011;47430;50.808;4.388;2023-01-09T14:59:20;5.47;;;2.43;;
11471;SDS011;47430;50.808;4.388;2023-01-09T15:01:47;3.83;;;2.10;;
11471;SDS011;47430;50.808;4.388;2023-01-09T15:04:23;9.23;;;2.97;;
11471;SDS011;47430;50.808;4.388;2023-01-09T15:06:49;2.93;;;2.10;;
11471;SDS011;47430;50.808;4.388;2023-01-09T15:09:20;7.80;;;2.70;;
11471;SDS011;47430;50.808;4.388;2023-01-09T15:11:48;8.63;;;2.20;;
11471;SDS011;47430;50.808;4.388;2023-01-09T15:16:56;8.87;;;2.47;;
11471;SDS011;47430;50.808;4.388;2023-01-09T15:19:23;5.70;;;2.37;;
11471;SDS011;47430;50.808;4.388;2023-01-09T15:22:00;6.37;;;2.50;;
11471;SDS011;47430;50.808;4.388;2023-01-09T15:24:28;5.23;;;1.97;;
11471;SDS011;47430;50.808;4.388;2023-01-09T15:26:55;6.13;;;1.93;;
11471;SDS011;47430;50.808;4.388;2023-01-09T15:29:22;7.63;;;2.03;;
11471;SDS011;47430;50.808;4.388;2023-01-09T15:31:51;8.10;;;2.63;;
11471;SDS011;47430;50.808;4.388;2023-01-09T15:34:22;4.63;;;2.10;;
11471;SDS011;47430;50.808;4.388;2023-01-09T15:36:49;3.63;;;1.90;;
11471;SDS011;47430;50.808;4.388;2023-01-09T15:41:49;5.80;;;2.20;;
11471;SDS011;47430;50.808;4.388;2023-01-09T15:44:33;9.77;;;2.20;;
11471;SDS011;47430;50.808;4.388;2023-01-09T15:47:03;6.00;;;2.13;;
11471;SDS011;47430;50.808;4.388;2023-01-09T15:49:29;5.00;;;2.23;;
11471;SDS011;47430;50.808;4.388;2023-01-09T15:51:56;5.80;;;2.00;;
11471;SDS011;47430;50.808;4.388;2023-01-09T15:54:29;4.03;;;2.03;;
11471;SDS011;47430;50.808;4.388;2023-01-09T15:59:41;4.70;;;2.40;;
11471;SDS011;47430;50.808;4.388;2023-01-09T16:02:08;5.00;;;2.07;;
11471;SDS011;47430;50.808;4.388;2023-01-09T16:04:55;8.20;;;2.70;;
11471;SDS011;47430;50.808;4.388;2023-01-09T16:07:21;3.37;;;2.57;;
11471;SDS011;47430;50.808;4.388;2023-01-09T16:09:47;6.50;;;2.80;;
11471;SDS011;47430;50.808;4.388;2023-01-09T16:12:17;5.13;;;2.60;;
11471;SDS011;47430;50.808;4.388;2023-01-09T16:14:47;8.90;;;2.47;;
11471;SDS011;47430;50.808;4.388;2023-01-09T16:17:15;12.80;;;3.00;;
11471;SDS011;47430;50.808;4.388;2023-01-09T16:19:49;6.67;;;2.73;;
11471;SDS011;47430;50.808;4.388;2023-01-09T16:22:19;7.87;;;3.73;;
11471;SDS011;47430;50.808;4.388;2023-01-09T16:24:46;5.97;;;3.13;;
11471;SDS011;47430;50.808;4.388;2023-01-09T16:29:45;8.53;;;2.87;;
11471;SDS011;47430;50.808;4.388;2023-01-09T16:32:20;9.83;;;3.60;;
11471;SDS011;47430;50.808;4.388;2023-01-09T16:35:21;9.53;;;3.77;;
11471;SDS011;47430;50.808;4.388;2023-01-09T16:37:39;7.77;;;3.17;;
11471;SDS011;47430;50.808;4.388;2023-01-09T16:42:54;5.40;;;3.00;;
11471;SDS011;47430;50.808;4.388;2023-01-09T16:45:36;12.47;;;3.43;;
11471;SDS011;47430;50.808;4.388;2023-01-09T16:48:13;7.27;;;3.33;;
11471;SDS011;47430;50.808;4.388;2023-01-09T16:50:40;9.13;;;3.20;;
11471;SDS011;47430;50.808;4.388;2023-01-09T16:53:11;6.90;;;3.23;;
11471;SDS011;47430;50.808;4.388;2023-01-09T16:55:37;7.80;;;3.30;;
11471;SDS011;47430;50.808;4.388;2023-01-09T16:58:03;10.20;;;4.30;;
11471;SDS011;47430;50.808;4.388;2023-01-09T17:00:30;9.27;;;3.37;;
11471;SDS011;47430;50.808;4.388;2023-01-09T17:02:56;5.50;;;3.63;;
11471;SDS011;47430;50.808;4.388;2023-01-09T17:05:22;12.43;;;3.73;;
11471;SDS011;47430;50.808;4.388;2023-01-09T17:07:48;9.30;;;3.37;;
11471;SDS011;47430;50.808;4.388;2023-01-09T17:10:19;9.50;;;3.47;;
11471;SDS011;47430;50.808;4.388;2023-01-09T17:12:46;7.77;;;3.50;;
11471;SDS011;47430;50.808;4.388;2023-01-09T17:15:14;8.10;;;4.13;;
11471;SDS011;47430;50.808;4.388;2023-01-09T17:17:40;6.77;;;3.83;;
11471;SDS011;47430;50.808;4.388;2023-01-09T17:20:14;12.07;;;5.07;;
11471;SDS011;47430;50.808;4.388;2023-01-09T17:22:40;9.33;;;4.70;;